sensor_id;sensor_type;location;lat;lon;timestamp;P1;durP1;ratioP1;P2;durP2;ratioP2
4577;SDS011;2301;47.354;8.528;2023-06-26T00:01:07;3.83;;;3.43;;
4577;SDS011;2301;47.354;8.528;2023-06-26T00:03:34;4.23;;;3.83;;
4577;SDS011;2301;47.354;8.528;2023-06-26T00:06:01;3.43;;;3.13;;
4577;SDS011;2301;47.354;8.528;2023-06-26T00:08:29;5.93;;;3.53;;
4577;SDS011;2301;47.354;8.528;2023-06-26T00:10:56;3.93;;;3.40;;
4577;SDS011;2301;47.354;8.528;2023-06-26T00:13:23;3.90;;;3.60;;
4577;SDS011;2301;47.354;8.528;2023-06-26T00:15:51;4.87;;;3.80;;
4577;SDS011;2301;47.354;8.528;2023-06-26T00:18:18;4.00;;;3.60;;
4577;SDS011;2301;47.354;8.528;2023-06-26T00:20:44;3.60;;;3.30;;
4577;SDS011;2301;47.354;8.528;2023-06-26T00:23:11;3.93;;;3.50;;
4577;SDS011;2301;47.354;8.528;2023-06-26T00:25:43;3.53;;;3.23;;
4577;SDS011;2301;47.354;8.528;2023-06-26T00:28:10;3.87;;;3.47;;
4577;SDS011;2301;47.354;8.528;2023-06-26T00:30:36;3.30;;;3.00;;
4577;SDS011;2301;47.354;8.528;2023-06-26T00:33:03;3.50;;;3.20;;
4577;SDS011;2301;47.354;8.528;2023-06-26T00:35:30;3.73;;;3.33;;
4577;SDS011;2301;47.354;8.528;2023-06-26T00:37:57;3.47;;;3.03;;
4577;SDS011;2301;47.354;8.528;2023-06-26T00:40:24;3.40;;;3.10;;
4577;SDS011;2301;47.354;8.528;2023-06-26T00:42:53;6.67;;;4.00;;
4577;SDS011;2301;47.354;8.528;2023-06-26T00:45:21;3.30;;;3.00;;
4577;SDS011;2301;47.354;8.528;2023-06-26T00:47:48;5.43;;;3.03;;
4577;SDS011;2301;47.354;8.528;2023-06-26T00:50:15;4.20;;;3.43;;
4577;SDS011;2301;47.354;8.528;2023-06-26T00:52:42;3.40;;;3.10;;
4577;SDS011;2301;47.354;8.528;2023-06-26T00:55:10;3.33;;;3.00;;
4577;SDS011;2301;47.354;8.528;2023-06-26T00:57:37;7.07;;;3.60;;
4577;SDS011;2301;47.354;8.528;2023-06-26T01:00:06;4.10;;;3.70;;
4577;SDS011;2301;47.354;8.528;2023-06-26T01:02:35;4.67;;;4.00;;
4577;SDS011;2301;47.354;8.528;2023-06-26T01:05:04;3.97;;;3.57;;
4577;SDS011;2301;47.354;8.528;2023-06-26T01:07:32;5.83;;;3.60;;
4577;SDS011;2301;47.354;8.528;2023-06-26T01:10:01;9.10;;;3.90;;
4577;SDS011;2301;47.354;8.528;2023-06-26T01:12:29;3.77;;;3.37;;
4577;SDS011;2301;47.354;8.528;2023-06-26T01:14:57;4.20;;;3.63;;
4577;SDS011;2301;47.354;8.528;2023-06-26T01:17:26;3.80;;;3.17;;
4577;SDS011;2301;47.354;8.528;2023-06-26T01:19:56;3.93;;;3.43;;
4577;SDS011;2301;47.354;8.528;2023-06-26T01:22:30;4.00;;;3.60;;
4577;SDS011;2301;47.354;8.528;2023-06-26T01:25:12;4.20;;;3.07;;
4577;SDS011;2301;47.354;8.528;2023-06-26T01:27:50;4.17;;;3.77;;
4577;SDS011;2301;47.354;8.528;2023-06-26T01:30:19;4.27;;;3.53;;
4577;SDS011;2301;47.354;8.528;2023-06-26T01:32:47;5.20;;;3.43;;
4577;SDS011;2301;47.354;8.528;2023-06-26T01:35:15;3.73;;;3.43;;
4577;SDS011;2301;47.354;8.528;2023-06-26T01:37:43;4.30;;;3.90;;
4577;SDS011;2301;47.354;8.528;2023-06-26T01:40:10;3.97;;;3.30;;
4577;SDS011;2301;47.354;8.528;2023-06-26T01:42:37;4.53;;;4.10;;
4577;SDS011;2301;47.354;8.528;2023-06-26T01:45:07;4.20;;;3.77;;
4577;SDS011;2301;47.354;8.528;2023-06-26T01:47:39;4.03;;;3.60;;
4577;SDS011;2301;47.354;8.528;2023-06-26T01:50:11;3.90;;;3.50;;
4577;SDS011;2301;47.354;8.528;2023-06-26T01:52:44;6.83;;;4.20;;
4577;SDS011;2301;47.354;8.528;2023-06-26T01:55:16;4.20;;;3.63;;
4577;SDS011;2301;47.354;8.528;2023-06-26T01:57:47;3.90;;;3.50;;
4577;SDS011;2301;47.354;8.528;2023-06-26T02:00:17;4.10;;;3.67;;
4577;SDS011;2301;47.354;8.528;2023-06-26T02:02:45;4.20;;;3.80;;
4577;SDS011;2301;47.354;8.528;2023-06-26T02:05:12;5.00;;;3.50;;
4577;SDS011;2301;47.354;8.528;2023-06-26T02:07:39;6.33;;;4.00;;
4577;SDS011;2301;47.354;8.528;2023-06-26T02:10:07;4.97;;;3.80;;
4577;SDS011;2301;47.354;8.528;2023-06-26T02:12:34;4.17;;;3.50;;
4577;SDS011;2301;47.354;8.528;2023-06-26T02:15:02;4.20;;;3.63;;
4577;SDS011;2301;47.354;8.528;2023-06-26T02:17:30;4.10;;;3.70;;
4577;SDS011;2301;47.354;8.528;2023-06-26T02:19:57;5.90;;;3.90;;
4577;SDS011;2301;47.354;8.528;2023-06-26T02:22:24;3.83;;;3.30;;
4577;SDS011;2301;47.354;8.528;2023-06-26T02:24:53;5.10;;;3.77;;
4577;SDS011;2301;47.354;8.528;2023-06-26T02:27:20;4.17;;;3.63;;
4577;SDS011;2301;47.354;8.528;2023-06-26T02:29:47;4.33;;;3.50;;
4577;SDS011;2301;47.354;8.528;2023-06-26T02:32:14;4.33;;;3.70;;
4577;SDS011;2301;47.354;8.528;2023-06-26T02:34:42;4.50;;;3.97;;
4577;SDS011;2301;47.354;8.528;2023-06-26T02:37:09;8.33;;;3.90;;
4577;SDS011;2301;47.354;8.528;2023-06-26T02:39:36;5.47;;;3.90;;
4577;SDS011;2301;47.354;8.528;2023-06-26T02:42:03;4.90;;;4.10;;
4577;SDS011;2301;47.354;8.528;2023-06-26T02:44:30;4.70;;;4.20;;
4577;SDS011;2301;47.354;8.528;2023-06-26T02:46:58;5.00;;;3.87;;
4577;SDS011;2301;47.354;8.528;2023-06-26T02:49:24;4.40;;;3.70;;
4577;SDS011;2301;47.354;8.528;2023-06-26T02:51:53;4.10;;;3.67;;
4577;SDS011;2301;47.354;8.528;2023-06-26T02:54:20;4.40;;;3.43;;
4577;SDS011;2301;47.354;8.528;2023-06-26T02:56:46;3.93;;;3.53;;
4577;SDS011;2301;47.354;8.528;2023-06-26T02:59:13;4.07;;;3.67;;
4577;SDS011;2301;47.354;8.528;2023-06-26T03:01:40;5.23;;;3.80;;
4577;SDS011;2301;47.354;8.528;2023-06-26T03:04:07;5.97;;;3.50;;
4577;SDS011;2301;47.354;8.528;2023-06-26T03:06:35;4.80;;;4.30;;
4577;SDS011;2301;47.354;8.528;2023-06-26T03:09:03;4.50;;;3.60;;
4577;SDS011;2301;47.354;8.528;2023-06-26T03:11:30;4.90;;;3.77;;
4577;SDS011;2301;47.354;8.528;2023-06-26T03:13:57;4.13;;;3.73;;
4577;SDS011;2301;47.354;8.528;2023-06-26T03:16:24;4.00;;;3.60;;
4577;SDS011;2301;47.354;8.528;2023-06-26T03:18:50;4.10;;;3.70;;
4577;SDS011;2301;47.354;8.528;2023-06-26T03:21:17;3.73;;;3.43;;
4577;SDS011;2301;47.354;8.528;2023-06-26T03:23:44;5.73;;;4.07;;
4577;SDS011;2301;47.354;8.528;2023-06-26T03:26:12;4.10;;;3.70;;
4577;SDS011;2301;47.354;8.528;2023-06-26T03:28:39;4.70;;;3.93;;
4577;SDS011;2301;47.354;8.528;2023-06-26T03:31:07;6.13;;;4.10;;
4577;SDS011;2301;47.354;8.528;2023-06-26T03:33:33;5.00;;;3.90;;
4577;SDS011;2301;47.354;8.528;2023-06-26T03:36:00;4.20;;;3.80;;
4577;SDS011;2301;47.354;8.528;2023-06-26T03:38:27;3.77;;;3.47;;
4577;SDS011;2301;47.354;8.528;2023-06-26T03:40:54;3.87;;;3.47;;
4577;SDS011;2301;47.354;8.528;2023-06-26T03:43:23;4.67;;;4.00;;
4577;SDS011;2301;47.354;8.528;2023-06-26T03:45:50;5.07;;;3.60;;
4577;SDS011;2301;47.354;8.528;2023-06-26T03:48:16;4.80;;;3.73;;
4577;SDS011;2301;47.354;8.528;2023-06-26T03:50:44;4.70;;;4.27;;
4577;SDS011;2301;47.354;8.528;2023-06-26T03:53:11;5.40;;;3.90;;
4577;SDS011;2301;47.354;8.528;2023-06-26T03:55:38;4.60;;;4.00;;
4577;SDS011;2301;47.354;8.528;2023-06-26T03:58:04;5.47;;;3.70;;
4577;SDS011;2301;47.354;8.528;2023-06-26T04:00:33;3.90;;;3.50;;
4577;SDS011;2301;47.354;8.528;2023-06-26T04:02:59;5.10;;;4.07;;
4577;SDS011;2301;47.354;8.528;2023-06-26T04:05:27;4.80;;;3.97;;
4577;SDS011;2301;47.354;8.528;2023-06-26T04:07:54;4.10;;;3.70;;
4577;SDS011;2301;47.354;8.528;2023-06-26T04:10:21;4.63;;;3.73;;
4577;SDS011;2301;47.354;8.528;2023-06-26T04:12:48;4.53;;;3.73;;
4577;SDS011;2301;47.354;8.528;2023-06-26T04:15:15;4.63;;;4.07;;
4577;SDS011;2301;47.354;8.528;2023-06-26T04:17:43;4.70;;;4.17;;
4577;SDS011;2301;47.354;8.528;2023-06-26T04:20:10;6.83;;;4.07;;
4577;SDS011;2301;47.354;8.528;2023-06-26T04:22:37;4.43;;;3.93;;
4577;SDS011;2301;47.354;8.528;2023-06-26T04:25:04;4.53;;;3.90;;
4577;SDS011;2301;47.354;8.528;2023-06-26T04:27:32;4.10;;;3.40;;
4577;SDS011;2301;47.354;8.528;2023-06-26T04:29:59;5.37;;;3.43;;
4577;SDS011;2301;47.354;8.528;2023-06-26T04:32:26;6.00;;;3.70;;
4577;SDS011;2301;47.354;8.528;2023-06-26T04:34:54;5.43;;;4.17;;
4577;SDS011;2301;47.354;8.528;2023-06-26T04:37:21;4.73;;;4.20;;
4577;SDS011;2301;47.354;8.528;2023-06-26T04:39:49;4.67;;;4.10;;
4577;SDS011;2301;47.354;8.528;2023-06-26T04:42:16;4.37;;;3.80;;
4577;SDS011;2301;47.354;8.528;2023-06-26T04:44:44;4.60;;;4.00;;
4577;SDS011;2301;47.354;8.528;2023-06-26T04:47:10;5.87;;;4.03;;
4577;SDS011;2301;47.354;8.528;2023-06-26T04:49:40;4.57;;;3.77;;
4577;SDS011;2301;47.354;8.528;2023-06-26T04:52:09;5.20;;;4.40;;
4577;SDS011;2301;47.354;8.528;2023-06-26T04:54:38;9.53;;;3.80;;
4577;SDS011;2301;47.354;8.528;2023-06-26T04:57:05;4.80;;;4.30;;
4577;SDS011;2301;47.354;8.528;2023-06-26T04:59:33;4.77;;;4.27;;
4577;SDS011;2301;47.354;8.528;2023-06-26T05:02:00;4.50;;;4.00;;
4577;SDS011;2301;47.354;8.528;2023-06-26T05:04:28;4.03;;;3.60;;
4577;SDS011;2301;47.354;8.528;2023-06-26T05:06:54;5.87;;;3.97;;
4577;SDS011;2301;47.354;8.528;2023-06-26T05:09:23;5.03;;;4.10;;
4577;SDS011;2301;47.354;8.528;2023-06-26T05:11:49;4.30;;;3.90;;
4577;SDS011;2301;47.354;8.528;2023-06-26T05:14:17;7.57;;;4.17;;
4577;SDS011;2301;47.354;8.528;2023-06-26T05:16:44;4.80;;;4.30;;
4577;SDS011;2301;47.354;8.528;2023-06-26T05:19:10;4.90;;;4.30;;
4577;SDS011;2301;47.354;8.528;2023-06-26T05:21:37;6.40;;;4.50;;
4577;SDS011;2301;47.354;8.528;2023-06-26T05:24:05;5.30;;;4.80;;
4577;SDS011;2301;47.354;8.528;2023-06-26T05:26:35;6.47;;;4.73;;
4577;SDS011;2301;47.354;8.528;2023-06-26T05:29:02;4.80;;;4.30;;
4577;SDS011;2301;47.354;8.528;2023-06-26T05:31:30;5.77;;;4.10;;
4577;SDS011;2301;47.354;8.528;2023-06-26T05:34:00;6.07;;;4.10;;
4577;SDS011;2301;47.354;8.528;2023-06-26T05:36:29;10.03;;;4.13;;
4577;SDS011;2301;47.354;8.528;2023-06-26T05:38:59;6.63;;;4.30;;
4577;SDS011;2301;47.354;8.528;2023-06-26T05:41:26;5.10;;;3.80;;
4577;SDS011;2301;47.354;8.528;2023-06-26T05:43:55;9.13;;;3.63;;
4577;SDS011;2301;47.354;8.528;2023-06-26T05:46:22;5.53;;;4.30;;
4577;SDS011;2301;47.354;8.528;2023-06-26T05:48:48;6.40;;;4.33;;
4577;SDS011;2301;47.354;8.528;2023-06-26T05:51:15;4.17;;;3.70;;
4577;SDS011;2301;47.354;8.528;2023-06-26T05:53:43;4.97;;;4.23;;
4577;SDS011;2301;47.354;8.528;2023-06-26T05:56:11;4.87;;;3.83;;
4577;SDS011;2301;47.354;8.528;2023-06-26T05:58:38;5.43;;;4.17;;
4577;SDS011;2301;47.354;8.528;2023-06-26T06:01:08;4.67;;;4.20;;
4577;SDS011;2301;47.354;8.528;2023-06-26T06:03:35;4.90;;;4.40;;
4577;SDS011;2301;47.354;8.528;2023-06-26T06:06:02;4.80;;;4.30;;
4577;SDS011;2301;47.354;8.528;2023-06-26T06:08:29;4.50;;;4.10;;
4577;SDS011;2301;47.354;8.528;2023-06-26T06:10:56;4.57;;;4.00;;
4577;SDS011;2301;47.354;8.528;2023-06-26T06:13:23;4.77;;;4.27;;
4577;SDS011;2301;47.354;8.528;2023-06-26T06:15:50;4.77;;;4.27;;
4577;SDS011;2301;47.354;8.528;2023-06-26T06:18:18;4.03;;;3.73;;
4577;SDS011;2301;47.354;8.528;2023-06-26T06:20:45;5.73;;;4.23;;
4577;SDS011;2301;47.354;8.528;2023-06-26T06:23:12;6.43;;;4.30;;
4577;SDS011;2301;47.354;8.528;2023-06-26T06:25:39;5.00;;;4.10;;
4577;SDS011;2301;47.354;8.528;2023-06-26T06:28:06;4.53;;;4.13;;
4577;SDS011;2301;47.354;8.528;2023-06-26T06:30:33;4.57;;;3.87;;
4577;SDS011;2301;47.354;8.528;2023-06-26T06:32:59;4.40;;;4.00;;
4577;SDS011;2301;47.354;8.528;2023-06-26T06:35:28;4.30;;;3.90;;
4577;SDS011;2301;47.354;8.528;2023-06-26T06:37:54;5.80;;;3.70;;
4577;SDS011;2301;47.354;8.528;2023-06-26T06:40:21;11.10;;;5.10;;
4577;SDS011;2301;47.354;8.528;2023-06-26T06:42:49;5.00;;;4.23;;
4577;SDS011;2301;47.354;8.528;2023-06-26T06:45:16;8.00;;;5.10;;
4577;SDS011;2301;47.354;8.528;2023-06-26T06:47:43;9.73;;;4.83;;
4577;SDS011;2301;47.354;8.528;2023-06-26T06:50:10;8.20;;;4.60;;
4577;SDS011;2301;47.354;8.528;2023-06-26T06:52:38;9.43;;;4.17;;
4577;SDS011;2301;47.354;8.528;2023-06-26T06:55:07;6.20;;;4.63;;
4577;SDS011;2301;47.354;8.528;2023-06-26T06:57:34;5.40;;;4.30;;
4577;SDS011;2301;47.354;8.528;2023-06-26T07:00:03;4.97;;;4.47;;
4577;SDS011;2301;47.354;8.528;2023-06-26T07:02:33;4.80;;;4.30;;
4577;SDS011;2301;47.354;8.528;2023-06-26T07:05:00;5.17;;;3.90;;
4577;SDS011;2301;47.354;8.528;2023-06-26T07:07:28;7.00;;;4.90;;
4577;SDS011;2301;47.354;8.528;2023-06-26T07:09:58;6.10;;;4.80;;
4577;SDS011;2301;47.354;8.528;2023-06-26T07:12:25;7.33;;;4.40;;
4577;SDS011;2301;47.354;8.528;2023-06-26T07:14:52;4.20;;;3.80;;
4577;SDS011;2301;47.354;8.528;2023-06-26T07:17:19;4.87;;;4.27;;
4577;SDS011;2301;47.354;8.528;2023-06-26T07:19:46;4.63;;;4.10;;
4577;SDS011;2301;47.354;8.528;2023-06-26T07:22:13;4.07;;;3.70;;
4577;SDS011;2301;47.354;8.528;2023-06-26T07:24:40;4.20;;;3.77;;
4577;SDS011;2301;47.354;8.528;2023-06-26T07:27:08;4.40;;;3.97;;
4577;SDS011;2301;47.354;8.528;2023-06-26T07:29:35;6.50;;;4.33;;
4577;SDS011;2301;47.354;8.528;2023-06-26T07:32:02;7.43;;;5.40;;
4577;SDS011;2301;47.354;8.528;2023-06-26T07:34:30;4.37;;;3.97;;
4577;SDS011;2301;47.354;8.528;2023-06-26T07:36:56;4.53;;;3.97;;
4577;SDS011;2301;47.354;8.528;2023-06-26T07:39:23;3.80;;;3.50;;
4577;SDS011;2301;47.354;8.528;2023-06-26T07:41:50;3.63;;;3.33;;
4577;SDS011;2301;47.354;8.528;2023-06-26T07:44:18;3.77;;;3.33;;
4577;SDS011;2301;47.354;8.528;2023-06-26T07:46:45;4.50;;;3.57;;
4577;SDS011;2301;47.354;8.528;2023-06-26T07:49:12;9.23;;;4.20;;
4577;SDS011;2301;47.354;8.528;2023-06-26T07:51:39;4.03;;;3.63;;
4577;SDS011;2301;47.354;8.528;2023-06-26T07:54:06;4.50;;;4.10;;
4577;SDS011;2301;47.354;8.528;2023-06-26T07:56:34;4.90;;;3.57;;
4577;SDS011;2301;47.354;8.528;2023-06-26T07:59:19;6.10;;;4.10;;
4577;SDS011;2301;47.354;8.528;2023-06-26T08:01:47;7.90;;;3.53;;
4577;SDS011;2301;47.354;8.528;2023-06-26T08:04:14;3.80;;;3.30;;
4577;SDS011;2301;47.354;8.528;2023-06-26T08:06:40;4.00;;;3.60;;
4577;SDS011;2301;47.354;8.528;2023-06-26T08:09:07;3.47;;;3.17;;
4577;SDS011;2301;47.354;8.528;2023-06-26T08:11:34;6.30;;;3.63;;
4577;SDS011;2301;47.354;8.528;2023-06-26T08:14:01;4.30;;;3.90;;
4577;SDS011;2301;47.354;8.528;2023-06-26T08:16:29;3.90;;;3.60;;
4577;SDS011;2301;47.354;8.528;2023-06-26T08:18:56;5.33;;;3.90;;
4577;SDS011;2301;47.354;8.528;2023-06-26T08:21:23;5.13;;;3.80;;
4577;SDS011;2301;47.354;8.528;2023-06-26T08:23:50;4.20;;;3.80;;
4577;SDS011;2301;47.354;8.528;2023-06-26T08:26:17;5.10;;;4.10;;
4577;SDS011;2301;47.354;8.528;2023-06-26T08:28:43;4.10;;;3.37;;
4577;SDS011;2301;47.354;8.528;2023-06-26T08:31:10;8.10;;;3.20;;
4577;SDS011;2301;47.354;8.528;2023-06-26T08:33:39;4.40;;;3.87;;
4577;SDS011;2301;47.354;8.528;2023-06-26T08:36:06;4.30;;;3.50;;
4577;SDS011;2301;47.354;8.528;2023-06-26T08:38:33;3.50;;;3.20;;
4577;SDS011;2301;47.354;8.528;2023-06-26T08:41:00;4.03;;;3.70;;
4577;SDS011;2301;47.354;8.528;2023-06-26T08:43:27;3.90;;;3.50;;
4577;SDS011;2301;47.354;8.528;2023-06-26T08:45:54;3.93;;;3.63;;
4577;SDS011;2301;47.354;8.528;2023-06-26T08:48:20;3.73;;;3.43;;
4577;SDS011;2301;47.354;8.528;2023-06-26T08:50:49;4.87;;;3.60;;
4577;SDS011;2301;47.354;8.528;2023-06-26T08:53:20;4.57;;;3.60;;
4577;SDS011;2301;47.354;8.528;2023-06-26T08:55:53;4.53;;;3.60;;
4577;SDS011;2301;47.354;8.528;2023-06-26T08:58:23;3.93;;;3.63;;
4577;SDS011;2301;47.354;8.528;2023-06-26T09:00:50;3.93;;;3.43;;
4577;SDS011;2301;47.354;8.528;2023-06-26T09:03:17;3.83;;;3.37;;
4577;SDS011;2301;47.354;8.528;2023-06-26T09:05:44;4.40;;;4.00;;
4577;SDS011;2301;47.354;8.528;2023-06-26T09:08:13;3.73;;;3.33;;
4577;SDS011;2301;47.354;8.528;2023-06-26T09:10:40;3.80;;;3.50;;
4577;SDS011;2301;47.354;8.528;2023-06-26T09:13:06;8.37;;;3.57;;
4577;SDS011;2301;47.354;8.528;2023-06-26T09:15:37;3.57;;;3.27;;
4577;SDS011;2301;47.354;8.528;2023-06-26T09:18:05;5.53;;;3.07;;
4577;SDS011;2301;47.354;8.528;2023-06-26T09:20:32;3.63;;;3.33;;
4577;SDS011;2301;47.354;8.528;2023-06-26T09:22:59;3.30;;;3.00;;
4577;SDS011;2301;47.354;8.528;2023-06-26T09:25:28;3.23;;;3.03;;
4577;SDS011;2301;47.354;8.528;2023-06-26T09:27:55;3.97;;;3.40;;
4577;SDS011;2301;47.354;8.528;2023-06-26T09:30:22;4.10;;;3.63;;
4577;SDS011;2301;47.354;8.528;2023-06-26T09:32:49;3.57;;;3.27;;
4577;SDS011;2301;47.354;8.528;2023-06-26T09:35:19;3.30;;;3.00;;
4577;SDS011;2301;47.354;8.528;2023-06-26T09:37:46;4.17;;;3.77;;
4577;SDS011;2301;47.354;8.528;2023-06-26T09:40:13;4.27;;;3.30;;
4577;SDS011;2301;47.354;8.528;2023-06-26T09:42:43;4.03;;;3.60;;
4577;SDS011;2301;47.354;8.528;2023-06-26T09:45:17;3.87;;;3.57;;
4577;SDS011;2301;47.354;8.528;2023-06-26T09:47:45;3.50;;;3.20;;
4577;SDS011;2301;47.354;8.528;2023-06-26T09:50:20;3.83;;;3.43;;
4577;SDS011;2301;47.354;8.528;2023-06-26T09:52:50;3.93;;;3.47;;
4577;SDS011;2301;47.354;8.528;2023-06-26T09:55:17;3.47;;;3.17;;
4577;SDS011;2301;47.354;8.528;2023-06-26T09:57:48;3.13;;;2.90;;
4577;SDS011;2301;47.354;8.528;2023-06-26T10:00:16;4.53;;;3.33;;
4577;SDS011;2301;47.354;8.528;2023-06-26T10:02:43;3.40;;;3.10;;
4577;SDS011;2301;47.354;8.528;2023-06-26T10:05:10;5.47;;;3.20;;
4577;SDS011;2301;47.354;8.528;2023-06-26T10:07:38;3.60;;;3.30;;
4577;SDS011;2301;47.354;8.528;2023-06-26T10:10:06;5.30;;;3.37;;
4577;SDS011;2301;47.354;8.528;2023-06-26T10:12:34;3.33;;;3.03;;
4577;SDS011;2301;47.354;8.528;2023-06-26T10:15:03;3.63;;;3.33;;
4577;SDS011;2301;47.354;8.528;2023-06-26T10:17:32;3.40;;;3.10;;
4577;SDS011;2301;47.354;8.528;2023-06-26T10:20:02;3.40;;;3.20;;
4577;SDS011;2301;47.354;8.528;2023-06-26T10:22:31;3.57;;;3.27;;
4577;SDS011;2301;47.354;8.528;2023-06-26T10:25:06;5.27;;;3.63;;
4577;SDS011;2301;47.354;8.528;2023-06-26T10:27:34;3.50;;;3.20;;
4577;SDS011;2301;47.354;8.528;2023-06-26T10:30:04;2.93;;;2.73;;
4577;SDS011;2301;47.354;8.528;2023-06-26T10:32:36;3.33;;;3.03;;
4577;SDS011;2301;47.354;8.528;2023-06-26T10:35:05;3.27;;;2.87;;
4577;SDS011;2301;47.354;8.528;2023-06-26T10:37:43;3.80;;;3.50;;
4577;SDS011;2301;47.354;8.528;2023-06-26T10:40:11;3.40;;;3.07;;
4577;SDS011;2301;47.354;8.528;2023-06-26T10:42:39;3.20;;;2.83;;
4577;SDS011;2301;47.354;8.528;2023-06-26T10:45:13;3.47;;;3.20;;
4577;SDS011;2301;47.354;8.528;2023-06-26T10:47:42;3.20;;;3.00;;
4577;SDS011;2301;47.354;8.528;2023-06-26T10:50:19;3.17;;;2.97;;
4577;SDS011;2301;47.354;8.528;2023-06-26T10:55:37;4.63;;;2.80;;
4577;SDS011;2301;47.354;8.528;2023-06-26T10:58:18;3.37;;;3.17;;
4577;SDS011;2301;47.354;8.528;2023-06-26T11:01:06;3.60;;;3.30;;
4577;SDS011;2301;47.354;8.528;2023-06-26T11:03:41;4.70;;;3.10;;
4577;SDS011;2301;47.354;8.528;2023-06-26T11:06:11;3.90;;;3.50;;
4577;SDS011;2301;47.354;8.528;2023-06-26T11:08:45;3.50;;;3.07;;
4577;SDS011;2301;47.354;8.528;2023-06-26T11:11:13;3.70;;;3.10;;
4577;SDS011;2301;47.354;8.528;2023-06-26T11:13:41;3.17;;;2.97;;
4577;SDS011;2301;47.354;8.528;2023-06-26T11:16:10;3.43;;;3.13;;
4577;SDS011;2301;47.354;8.528;2023-06-26T11:18:38;2.90;;;2.70;;
4577;SDS011;2301;47.354;8.528;2023-06-26T11:21:06;5.73;;;3.30;;
4577;SDS011;2301;47.354;8.528;2023-06-26T11:23:34;3.03;;;2.80;;
4577;SDS011;2301;47.354;8.528;2023-06-26T11:26:15;3.47;;;3.17;;
4577;SDS011;2301;47.354;8.528;2023-06-26T11:28:47;3.33;;;3.13;;
4577;SDS011;2301;47.354;8.528;2023-06-26T11:31:26;3.20;;;2.90;;
4577;SDS011;2301;47.354;8.528;2023-06-26T11:33:55;3.70;;;3.40;;
4577;SDS011;2301;47.354;8.528;2023-06-26T11:36:23;5.63;;;3.10;;
4577;SDS011;2301;47.354;8.528;2023-06-26T11:38:53;9.47;;;3.90;;
4577;SDS011;2301;47.354;8.528;2023-06-26T11:41:21;3.50;;;3.30;;
4577;SDS011;2301;47.354;8.528;2023-06-26T11:43:48;3.30;;;3.00;;
4577;SDS011;2301;47.354;8.528;2023-06-26T11:46:16;3.17;;;2.97;;
4577;SDS011;2301;47.354;8.528;2023-06-26T11:48:45;3.63;;;3.37;;
4577;SDS011;2301;47.354;8.528;2023-06-26T11:51:12;3.83;;;3.53;;
4577;SDS011;2301;47.354;8.528;2023-06-26T11:53:40;5.00;;;3.20;;
4577;SDS011;2301;47.354;8.528;2023-06-26T11:56:08;3.50;;;3.30;;
4577;SDS011;2301;47.354;8.528;2023-06-26T11:58:36;4.90;;;3.40;;
4577;SDS011;2301;47.354;8.528;2023-06-26T12:01:03;6.80;;;3.73;;
4577;SDS011;2301;47.354;8.528;2023-06-26T12:03:30;3.90;;;3.60;;
4577;SDS011;2301;47.354;8.528;2023-06-26T12:06:00;4.77;;;3.60;;
4577;SDS011;2301;47.354;8.528;2023-06-26T12:08:31;7.23;;;3.97;;
4577;SDS011;2301;47.354;8.528;2023-06-26T12:10:58;4.30;;;4.00;;
4577;SDS011;2301;47.354;8.528;2023-06-26T12:13:25;3.50;;;3.20;;
4577;SDS011;2301;47.354;8.528;2023-06-26T12:15:52;4.73;;;3.70;;
4577;SDS011;2301;47.354;8.528;2023-06-26T12:18:19;6.13;;;3.90;;
4577;SDS011;2301;47.354;8.528;2023-06-26T12:20:49;6.57;;;3.93;;
4577;SDS011;2301;47.354;8.528;2023-06-26T12:23:17;4.00;;;3.70;;
4577;SDS011;2301;47.354;8.528;2023-06-26T12:25:44;4.50;;;3.90;;
4577;SDS011;2301;47.354;8.528;2023-06-26T12:28:15;6.47;;;3.57;;
4577;SDS011;2301;47.354;8.528;2023-06-26T12:30:45;4.83;;;3.83;;
4577;SDS011;2301;47.354;8.528;2023-06-26T12:33:14;4.50;;;4.10;;
4577;SDS011;2301;47.354;8.528;2023-06-26T12:35:41;6.40;;;3.67;;
4577;SDS011;2301;47.354;8.528;2023-06-26T12:38:09;5.57;;;4.17;;
4577;SDS011;2301;47.354;8.528;2023-06-26T12:40:45;5.47;;;3.87;;
4577;SDS011;2301;47.354;8.528;2023-06-26T12:43:22;4.87;;;4.20;;
4577;SDS011;2301;47.354;8.528;2023-06-26T12:45:53;4.43;;;3.53;;
4577;SDS011;2301;47.354;8.528;2023-06-26T12:48:21;9.03;;;3.87;;
4577;SDS011;2301;47.354;8.528;2023-06-26T12:50:48;4.50;;;3.80;;
4577;SDS011;2301;47.354;8.528;2023-06-26T12:53:15;4.30;;;3.63;;
4577;SDS011;2301;47.354;8.528;2023-06-26T12:55:43;4.63;;;4.00;;
4577;SDS011;2301;47.354;8.528;2023-06-26T12:58:11;3.80;;;3.50;;
4577;SDS011;2301;47.354;8.528;2023-06-26T13:00:38;5.27;;;3.50;;
4577;SDS011;2301;47.354;8.528;2023-06-26T13:03:06;4.30;;;3.90;;
4577;SDS011;2301;47.354;8.528;2023-06-26T13:05:33;3.93;;;3.63;;
4577;SDS011;2301;47.354;8.528;2023-06-26T13:08:00;3.80;;;3.50;;
4577;SDS011;2301;47.354;8.528;2023-06-26T13:10:28;4.17;;;3.80;;
4577;SDS011;2301;47.354;8.528;2023-06-26T13:12:55;8.53;;;4.33;;
4577;SDS011;2301;47.354;8.528;2023-06-26T13:15:23;5.63;;;3.53;;
4577;SDS011;2301;47.354;8.528;2023-06-26T13:17:52;3.80;;;3.50;;
4577;SDS011;2301;47.354;8.528;2023-06-26T13:20:21;4.43;;;3.27;;
4577;SDS011;2301;47.354;8.528;2023-06-26T13:22:48;4.40;;;4.00;;
4577;SDS011;2301;47.354;8.528;2023-06-26T13:25:15;6.47;;;3.93;;
4577;SDS011;2301;47.354;8.528;2023-06-26T13:27:42;4.80;;;3.40;;
4577;SDS011;2301;47.354;8.528;2023-06-26T13:30:09;4.50;;;3.90;;
4577;SDS011;2301;47.354;8.528;2023-06-26T13:32:38;3.97;;;3.53;;
4577;SDS011;2301;47.354;8.528;2023-06-26T13:35:05;4.20;;;3.80;;
4577;SDS011;2301;47.354;8.528;2023-06-26T13:37:33;6.03;;;3.60;;
4577;SDS011;2301;47.354;8.528;2023-06-26T13:40:00;5.07;;;3.77;;
4577;SDS011;2301;47.354;8.528;2023-06-26T13:42:27;3.77;;;3.47;;
4577;SDS011;2301;47.354;8.528;2023-06-26T13:44:54;3.97;;;3.67;;
4577;SDS011;2301;47.354;8.528;2023-06-26T13:47:21;8.53;;;3.70;;
4577;SDS011;2301;47.354;8.528;2023-06-26T13:49:50;4.43;;;3.47;;
4577;SDS011;2301;47.354;8.528;2023-06-26T13:52:17;4.17;;;3.83;;
4577;SDS011;2301;47.354;8.528;2023-06-26T13:54:43;4.33;;;3.57;;
4577;SDS011;2301;47.354;8.528;2023-06-26T13:57:10;3.60;;;3.30;;
4577;SDS011;2301;47.354;8.528;2023-06-26T13:59:38;3.97;;;3.67;;
4577;SDS011;2301;47.354;8.528;2023-06-26T14:02:05;4.40;;;3.70;;
4577;SDS011;2301;47.354;8.528;2023-06-26T14:04:33;8.13;;;3.73;;
4577;SDS011;2301;47.354;8.528;2023-06-26T14:07:02;4.40;;;4.00;;
4577;SDS011;2301;47.354;8.528;2023-06-26T14:09:30;4.30;;;3.50;;
4577;SDS011;2301;47.354;8.528;2023-06-26T14:11:57;4.10;;;3.50;;
4577;SDS011;2301;47.354;8.528;2023-06-26T14:14:24;3.80;;;3.40;;
4577;SDS011;2301;47.354;8.528;2023-06-26T14:16:51;3.70;;;3.40;;
4577;SDS011;2301;47.354;8.528;2023-06-26T14:19:19;5.70;;;3.20;;
4577;SDS011;2301;47.354;8.528;2023-06-26T14:21:46;3.53;;;3.23;;
4577;SDS011;2301;47.354;8.528;2023-06-26T14:24:15;3.50;;;3.00;;
4577;SDS011;2301;47.354;8.528;2023-06-26T14:26:42;3.53;;;3.23;;
4577;SDS011;2301;47.354;8.528;2023-06-26T14:29:09;3.77;;;3.37;;
4577;SDS011;2301;47.354;8.528;2023-06-26T14:31:36;4.00;;;3.40;;
4577;SDS011;2301;47.354;8.528;2023-06-26T14:34:03;3.53;;;3.23;;
4577;SDS011;2301;47.354;8.528;2023-06-26T14:36:30;3.73;;;3.33;;
4577;SDS011;2301;47.354;8.528;2023-06-26T14:38:57;5.17;;;3.73;;
4577;SDS011;2301;47.354;8.528;2023-06-26T14:41:26;3.50;;;3.20;;
4577;SDS011;2301;47.354;8.528;2023-06-26T14:43:54;5.70;;;3.00;;
4577;SDS011;2301;47.354;8.528;2023-06-26T14:46:21;4.27;;;3.87;;
4577;SDS011;2301;47.354;8.528;2023-06-26T14:48:48;3.80;;;3.50;;
4577;SDS011;2301;47.354;8.528;2023-06-26T14:51:16;9.60;;;3.50;;
4577;SDS011;2301;47.354;8.528;2023-06-26T14:53:43;4.37;;;3.23;;
4577;SDS011;2301;47.354;8.528;2023-06-26T14:56:10;3.70;;;3.40;;
4577;SDS011;2301;47.354;8.528;2023-06-26T14:58:39;3.20;;;2.90;;
4577;SDS011;2301;47.354;8.528;2023-06-26T15:01:06;4.30;;;3.17;;
4577;SDS011;2301;47.354;8.528;2023-06-26T15:03:34;5.60;;;3.20;;
4577;SDS011;2301;47.354;8.528;2023-06-26T15:06:00;4.57;;;3.50;;
4577;SDS011;2301;47.354;8.528;2023-06-26T15:08:27;4.47;;;3.60;;
4577;SDS011;2301;47.354;8.528;2023-06-26T15:10:54;3.87;;;3.57;;
4577;SDS011;2301;47.354;8.528;2023-06-26T15:13:21;4.00;;;3.60;;
4577;SDS011;2301;47.354;8.528;2023-06-26T15:15:50;4.17;;;3.77;;
4577;SDS011;2301;47.354;8.528;2023-06-26T15:18:17;4.17;;;3.77;;
4577;SDS011;2301;47.354;8.528;2023-06-26T15:20:45;4.30;;;3.77;;
4577;SDS011;2301;47.354;8.528;2023-06-26T15:23:12;3.37;;;3.07;;